createdAt,value
2018-04-27T00:04:37.537Z,4.60
2018-04-27T00:09:28.562Z,6.37
2018-04-27T00:14:20.350Z,4.50
2018-04-27T00:19:11.366Z,5.17
2018-04-27T00:24:02.392Z,5.90
2018-04-27T00:28:53.421Z,5.07
2018-04-27T00:33:44.453Z,4.03
2018-04-27T00:38:35.523Z,6.83
2018-04-27T00:43:27.324Z,8.23
2018-04-27T00:48:18.326Z,4.07
2018-04-27T00:53:13.383Z,6.53
2018-04-27T00:58:04.451Z,6.23
2018-04-27T01:02:56.249Z,7.57
2018-04-27T01:07:47.317Z,4.00
2018-04-27T01:12:39.072Z,7.57
2018-04-27T01:17:30.116Z,8.33
2018-04-27T01:22:21.245Z,8.63
2018-04-27T01:27:12.349Z,8.70
2018-04-27T01:32:03.336Z,6.73
2018-04-27T01:36:55.100Z,6.70
2018-04-27T01:41:46.894Z,6.37
2018-04-27T01:46:37.925Z,5.20
2018-04-27T01:51:28.957Z,8.40
2018-04-27T01:56:20.009Z,8.57
2018-04-27T02:01:11.027Z,7.70
2018-04-27T02:06:02.814Z,11.63
2018-04-27T02:10:53.820Z,6.70
2018-04-27T02:15:44.934Z,5.83
2018-04-27T02:20:36.021Z,7.70
2018-04-27T02:25:27.774Z,6.70
2018-04-27T02:30:19.539Z,7.33
2018-04-27T02:35:10.625Z,9.60
2018-04-27T02:40:02.518Z,9.47
2018-04-27T02:44:53.539Z,9.40
2018-04-27T02:49:44.691Z,10.03
2018-04-27T02:54:35.767Z,11.03
2018-04-27T02:59:26.774Z,9.70
2018-04-27T03:04:18.555Z,11.63
2018-04-27T03:09:09.593Z,13.37
2018-04-27T03:14:00.612Z,17.27
2018-04-27T03:18:51.629Z,10.33
2018-04-27T03:23:42.678Z,13.17
2018-04-27T03:28:33.710Z,10.10
2018-04-27T03:33:24.706Z,13.80
2018-04-27T03:38:15.714Z,14.00
2018-04-27T03:43:06.940Z,9.97
2018-04-27T03:47:57.960Z,12.00
2018-04-27T03:52:48.987Z,12.90
2018-04-27T03:57:40.018Z,18.03
2018-04-27T04:02:49.770Z,13.57
2018-04-27T04:07:40.792Z,14.70
2018-04-27T04:12:31.833Z,14.27
2018-04-27T04:17:22.843Z,13.73
2018-04-27T04:22:13.910Z,12.57
2018-04-27T04:27:05.085Z,14.93
2018-04-27T04:31:56.097Z,13.00
2018-04-27T04:36:47.161Z,15.50
2018-04-27T04:41:38.183Z,13.40
2018-04-27T04:46:29.303Z,16.40
2018-04-27T04:51:20.417Z,13.67
2018-04-27T04:56:11.422Z,13.77
2018-04-27T05:01:02.440Z,15.40
2018-04-27T05:05:53.474Z,15.20
2018-04-27T05:10:44.484Z,13.13
2018-04-27T05:15:35.913Z,15.43
2018-04-27T05:20:26.792Z,13.63
2018-04-27T05:25:17.853Z,12.70
2018-04-27T05:30:08.945Z,15.27
2018-04-27T05:35:00.189Z,13.70
2018-04-27T05:39:51.950Z,12.93
2018-04-27T05:44:43.669Z,18.53
2018-04-27T05:49:35.519Z,14.00
2018-04-27T05:54:26.548Z,14.50
2018-04-27T05:59:17.612Z,15.23
2018-04-27T06:04:12.505Z,17.03
2018-04-27T06:09:04.392Z,15.70
2018-04-27T06:13:55.457Z,18.20
2018-04-27T06:18:46.456Z,16.43
2018-04-27T06:23:38.240Z,17.53
2018-04-27T06:28:32.068Z,20.40
2018-04-27T06:33:23.188Z,17.07
2018-04-27T06:38:14.294Z,16.40
2018-04-27T06:43:05.400Z,20.27
2018-04-27T06:47:56.461Z,20.47
2018-04-27T06:52:47.602Z,19.60
2018-04-27T06:57:38.707Z,17.70
2018-04-27T07:02:29.793Z,15.93
2018-04-27T07:07:20.938Z,17.07
2018-04-27T07:12:11.953Z,19.83
2018-04-27T07:17:03.158Z,16.30
2018-04-27T07:21:54.865Z,20.23
2018-04-27T07:26:45.864Z,18.40
2018-04-27T07:31:37.013Z,17.73
2018-04-27T07:36:28.061Z,15.00
2018-04-27T07:41:19.077Z,9.97
2018-04-27T07:46:10.845Z,16.73
2018-04-27T07:51:01.868Z,11.83
2018-04-27T07:55:52.921Z,11.07
2018-04-27T08:00:43.949Z,12.73
2018-04-27T08:05:35.019Z,10.20
2018-04-27T08:10:26.088Z,13.03
2018-04-27T08:15:17.109Z,12.60
2018-04-27T08:20:08.110Z,13.50
2018-04-27T08:24:59.191Z,14.23
2018-04-27T08:29:50.992Z,12.23
2018-04-27T08:34:42.157Z,13.90
2018-04-27T08:39:33.157Z,15.90
2018-04-27T08:44:24.212Z,9.20
2018-04-27T08:49:15.476Z,9.87
2018-04-27T08:54:06.483Z,13.53
2018-04-27T08:58:57.475Z,11.53
2018-04-27T09:03:48.497Z,11.73
2018-04-27T09:08:39.555Z,10.53
2018-04-27T09:13:30.628Z,9.97
2018-04-27T09:18:21.633Z,10.80
2018-04-27T09:23:12.639Z,16.13
2018-04-27T09:28:03.664Z,10.73
2018-04-27T09:32:54.768Z,15.33
2018-04-27T09:37:46.543Z,12.00
2018-04-27T09:42:37.576Z,13.93
2018-04-27T09:47:28.576Z,12.73
2018-04-27T09:52:19.609Z,7.53
2018-04-27T09:57:10.730Z,11.27
2018-04-27T10:02:01.811Z,7.67
2018-04-27T10:06:53.589Z,13.87
2018-04-27T10:11:44.846Z,7.63
2018-04-27T10:16:35.876Z,9.27
2018-04-27T10:21:26.874Z,6.80
2018-04-27T10:26:19.918Z,7.00
2018-04-27T10:31:10.953Z,9.87
2018-04-27T10:36:01.963Z,6.77
2018-04-27T10:40:52.978Z,8.97
2018-04-27T10:45:43.986Z,7.83
2018-04-27T10:50:35.852Z,5.70
2018-04-27T10:55:26.841Z,4.47
2018-04-27T11:00:18.595Z,6.23
2018-04-27T11:05:09.676Z,6.97
2018-04-27T11:10:00.994Z,7.33
2018-04-27T11:14:52.009Z,5.53
2018-04-27T11:19:43.234Z,9.93
2018-04-27T11:24:34.249Z,8.67
2018-04-27T11:29:25.355Z,10.40
2018-04-27T11:34:17.091Z,7.50
2018-04-27T11:39:08.882Z,8.27
2018-04-27T11:43:59.961Z,7.77
2018-04-27T11:48:51.695Z,6.57
2018-04-27T11:53:43.497Z,7.10
2018-04-27T11:58:34.551Z,6.00
2018-04-27T12:03:26.311Z,8.70
2018-04-27T12:08:17.311Z,8.03
2018-04-27T12:13:09.076Z,10.93
2018-04-27T12:18:00.229Z,11.77
2018-04-27T12:22:51.437Z,9.93
2018-04-27T12:27:42.436Z,8.47
2018-04-27T12:32:34.184Z,8.00
2018-04-27T12:37:25.303Z,8.30
2018-04-27T12:42:17.131Z,6.90
2018-04-27T12:47:08.929Z,6.53
2018-04-27T12:52:00.020Z,8.27
2018-04-27T12:56:51.496Z,12.57
2018-04-27T13:01:42.501Z,8.97
2018-04-27T13:06:33.513Z,7.53
2018-04-27T13:11:24.551Z,5.80
2018-04-27T13:16:15.755Z,10.33
2018-04-27T13:21:06.782Z,10.13
2018-04-27T13:25:57.805Z,6.50
2018-04-27T13:30:48.848Z,10.87
2018-04-27T13:35:39.939Z,8.07
2018-04-27T13:40:30.993Z,7.00
2018-04-27T13:45:22.001Z,7.37
2018-04-27T13:50:13.004Z,6.60
2018-04-27T13:55:04.761Z,6.90
2018-04-27T13:59:55.820Z,6.20
2018-04-27T14:04:46.890Z,6.60
2018-04-27T14:09:38.725Z,7.93
2018-04-27T14:14:32.295Z,7.33
2018-04-27T14:19:24.080Z,8.13
2018-04-27T14:24:15.133Z,7.13
2018-04-27T14:29:06.140Z,7.30
2018-04-27T14:33:57.201Z,9.53
2018-04-27T14:38:48.345Z,9.70
2018-04-27T14:43:40.335Z,7.93
2018-04-27T14:48:31.385Z,8.37
2018-04-27T14:53:22.384Z,7.10
2018-04-27T14:58:13.401Z,6.90
2018-04-27T15:03:04.441Z,8.43
2018-04-27T15:07:55.653Z,6.97
2018-04-27T15:12:46.658Z,6.40
2018-04-27T15:17:37.665Z,6.20
2018-04-27T15:22:29.434Z,7.90
2018-04-27T15:27:20.513Z,6.07
2018-04-27T15:32:12.320Z,5.77
2018-04-27T15:37:03.315Z,6.23
2018-04-27T15:41:54.381Z,7.10
2018-04-27T15:46:45.583Z,8.20
2018-04-27T15:51:36.596Z,7.00
2018-04-27T15:56:27.591Z,7.73
2018-04-27T16:01:18.629Z,8.73
2018-04-27T16:06:09.665Z,6.20
2018-04-27T16:11:00.905Z,8.07
2018-04-27T16:15:51.916Z,9.50
2018-04-27T16:20:42.923Z,6.70
2018-04-27T16:25:33.969Z,6.47
2018-04-27T16:30:25.051Z,7.90
2018-04-27T16:35:16.090Z,4.90
2018-04-27T16:40:08.761Z,7.63
2018-04-27T16:45:00.130Z,5.30
2018-04-27T16:49:51.215Z,5.60
2018-04-27T16:54:42.215Z,5.67
2018-04-27T16:59:34.024Z,5.90
2018-04-27T17:04:25.094Z,5.73
2018-04-27T17:09:16.226Z,6.97
2018-04-27T17:14:07.269Z,5.67
2018-04-27T17:18:58.269Z,5.23
2018-04-27T17:23:49.275Z,6.63
2018-04-27T17:28:40.377Z,7.50
2018-04-27T17:33:31.408Z,8.20
2018-04-27T17:38:23.223Z,4.70
2018-04-27T17:43:14.241Z,12.00
2018-04-27T17:48:05.313Z,7.17
2018-04-27T17:52:56.324Z,7.73
2018-04-27T17:57:48.286Z,5.60
2018-04-27T18:02:39.319Z,7.17
2018-04-27T18:07:30.414Z,5.50
2018-04-27T18:12:22.208Z,4.97
2018-04-27T18:17:13.225Z,6.53
2018-04-27T18:22:04.258Z,5.97
2018-04-27T18:26:55.453Z,7.97
2018-04-27T18:31:46.496Z,9.53
2018-04-27T18:36:37.556Z,10.57
2018-04-27T18:41:35.691Z,7.90
2018-04-27T18:46:26.731Z,6.80
2018-04-27T18:51:18.776Z,6.80
2018-04-27T18:56:09.911Z,8.27
2018-04-27T19:01:01.019Z,9.93
2018-04-27T19:05:52.096Z,10.07
2018-04-27T19:10:44.001Z,10.63
2018-04-27T19:15:35.075Z,8.33
2018-04-27T19:20:26.860Z,14.07
2018-04-27T19:25:17.869Z,16.83
2018-04-27T19:30:08.997Z,11.67
2018-04-27T19:35:00.027Z,11.33
2018-04-27T19:39:51.038Z,10.37
2018-04-27T19:44:42.143Z,11.80
2018-04-27T19:49:33.199Z,13.33
2018-04-27T19:54:24.308Z,12.27
2018-04-27T19:59:15.304Z,10.50
2018-04-27T20:04:07.072Z,8.70
2018-04-27T20:08:58.081Z,9.57
2018-04-27T20:13:49.200Z,9.90
2018-04-27T20:18:40.582Z,8.57
2018-04-27T20:23:34.740Z,10.93
2018-04-27T20:28:27.630Z,8.57
2018-04-27T20:33:19.635Z,8.70
2018-04-27T20:38:18.725Z,13.23
2018-04-27T20:43:10.553Z,14.83
2018-04-27T20:48:01.580Z,7.90
2018-04-27T20:52:52.705Z,10.33
2018-04-27T20:57:44.485Z,9.93
2018-04-27T21:02:35.537Z,6.80
2018-04-27T21:07:26.553Z,9.97
2018-04-27T21:12:17.584Z,11.23
2018-04-27T21:17:08.572Z,11.47
2018-04-27T21:21:59.612Z,8.80
2018-04-27T21:26:50.661Z,8.97
2018-04-27T21:31:41.655Z,11.23
2018-04-27T21:36:32.752Z,9.33
2018-04-27T21:47:01.881Z,11.80
2018-04-27T21:51:53.690Z,12.73
2018-04-27T21:57:07.673Z,10.07
2018-04-27T22:01:58.660Z,9.23
2018-04-27T22:06:49.657Z,8.60
2018-04-27T22:11:46.420Z,11.97
2018-04-27T22:16:40.400Z,10.70
2018-04-27T22:21:32.489Z,13.50
2018-04-27T22:26:23.502Z,9.23
2018-04-27T22:31:14.506Z,9.27
2018-04-27T22:41:27.351Z,12.23
2018-04-27T22:46:19.115Z,12.33
2018-04-27T22:51:17.911Z,12.30
2018-04-27T22:56:15.937Z,13.97
2018-04-27T23:01:07.697Z,11.17
2018-04-27T23:05:58.693Z,11.13
2018-04-27T23:10:57.702Z,12.67
2018-04-27T23:15:52.536Z,13.00
2018-04-27T23:20:53.420Z,10.47
2018-04-27T23:25:45.298Z,13.80
2018-04-27T23:30:36.493Z,9.67
2018-04-27T23:35:28.228Z,11.97
2018-04-27T23:40:20.865Z,12.97
2018-04-27T23:45:11.843Z,15.17
2018-04-27T23:50:02.841Z,12.60
2018-04-27T23:54:54.565Z,11.63
2018-04-27T23:59:46.406Z,11.97
